Time;durP1;ratioP1;P1;durP2;ratioP2;P2;SDS_P1;SDS_P2;PMS_P1;PMS_P2;Temp;Humidity;BMP_temperature;BMP_pressure;BME280_temperature;BME280_humidity;BME280_pressure;Samples;Min_cycle;Max_cycle;Signal;HPM_P1;HPM_P2
2023/06/18 00:01:17;;;;;;;19.20;17.30;;;;;;;18.32;79.76;100319.85;104250;1280;96568;-84
2023/06/18 00:04:02;;;;;;;20.00;17.70;;;;;;;18.33;79.66;100318.67;103952;1286;100037;-83
2023/06/18 00:06:48;;;;;;;19.90;18.00;;;;;;;18.32;79.63;100319.79;104136;1280;99131;-83
2023/06/18 00:09:34;;;;;;;19.00;17.10;;;;;;;18.29;79.73;100318.77;103946;1280;132472;-84
2023/06/18 00:12:20;;;;;;;22.40;17.60;;;;;;;18.27;79.79;100311.73;104149;1282;96701;-84
2023/06/18 00:15:06;;;;;;;20.00;16.80;;;;;;;18.24;79.84;100307.81;104008;1280;96737;-84
2023/06/18 00:17:52;;;;;;;18.80;16.90;;;;;;;18.22;79.93;100305.28;104284;1283;100028;-84
2023/06/18 00:20:37;;;;;;;20.00;17.80;;;;;;;18.21;79.83;100303.19;104087;1283;99256;-83
2023/06/18 00:23:23;;;;;;;19.00;16.90;;;;;;;18.20;79.80;100300.69;104115;1280;98533;-85
2023/06/18 00:26:08;;;;;;;19.20;17.00;;;;;;;18.19;80.02;100301.10;104302;1283;96690;-83
2023/06/18 00:28:55;;;;;;;18.60;15.70;;;;;;;18.18;80.06;100303.84;104158;1279;98345;-84
2023/06/18 00:31:40;;;;;;;19.00;16.30;;;;;;;18.17;79.96;100308.50;104293;1279;99986;-86
2023/06/18 00:34:32;;;;;;;20.80;18.60;;;;;;;18.18;79.92;100309.77;104105;1286;100152;-83
2023/06/18 00:37:20;;;;;;;19.10;17.10;;;;;;;18.18;80.09;100305.59;104224;1286;97784;-84
2023/06/18 00:40:06;;;;;;;20.10;18.10;;;;;;;18.16;80.16;100305.88;103906;1283;96895;-83
2023/06/18 00:42:52;;;;;;;20.30;18.30;;;;;;;18.15;80.15;100304.50;104259;1280;97034;-83
2023/06/18 00:45:37;;;;;;;20.80;18.80;;;;;;;18.11;80.45;100300.08;104068;1280;100145;-83
2023/06/18 00:48:25;;;;;;;20.80;18.70;;;;;;;18.05;80.57;100299.49;104164;1280;99171;-83
2023/06/18 00:51:12;;;;;;;19.70;17.60;;;;;;;17.99;80.76;100299.88;104053;1278;99025;-84
2023/06/18 00:53:58;;;;;;;20.30;18.20;;;;;;;17.97;80.94;100301.23;104023;1286;96680;-84
2023/06/18 00:56:53;;;;;;;22.20;19.90;;;;;;;17.93;81.04;100302.30;104095;1280;96406;-84
2023/06/18 00:59:42;;;;;;;20.30;18.40;;;;;;;17.86;81.38;100297.42;104156;1279;100050;-83
2023/06/18 01:02:28;;;;;;;20.40;18.40;;;;;;;17.77;81.69;100299.16;104061;1284;100570;-84
2023/06/18 01:05:14;;;;;;;22.10;19.50;;;;;;;17.73;81.85;100298.05;104260;1280;97549;-84
2023/06/18 01:08:06;;;;;;;19.50;17.50;;;;;;;17.71;82.12;100295.52;104152;1279;96731;-83
2023/06/18 01:11:01;;;;;;;18.70;16.90;;;;;;;17.67;81.71;100297.56;104237;1282;97194;-84
2023/06/18 01:13:47;;;;;;;19.30;17.30;;;;;;;17.63;81.73;100296.71;104253;1280;100044;-82
2023/06/18 01:16:34;;;;;;;19.20;17.10;;;;;;;17.60;81.58;100296.70;104262;1283;101065;-83
2023/06/18 01:19:40;;;;;;;20.50;18.40;;;;;;;17.60;81.61;100294.85;104294;1283;99027;-83
2023/06/18 01:22:41;;;;;;;18.30;16.50;;;;;;;17.57;81.65;100296.20;104210;1280;96632;-83
2023/06/18 01:25:27;;;;;;;19.70;17.70;;;;;;;17.56;81.93;100293.93;104247;1283;96567;-83
2023/06/18 01:28:15;;;;;;;23.50;19.10;;;;;;;17.57;82.22;100301.41;104046;1281;101438;-82
2023/06/18 01:31:01;;;;;;;23.50;20.90;;;;;;;17.56;82.18;100304.42;103978;1280;99132;-84
2023/06/18 01:33:51;;;;;;;23.90;20.20;;;;;;;17.56;82.31;100305.94;104063;1286;99417;-83
2023/06/18 01:36:53;;;;;;;25.00;22.00;;;;;;;17.56;82.58;100308.64;104151;1283;97124;-82
2023/06/18 01:40:01;;;;;;;24.10;21.50;;;;;;;17.54;82.87;100313.14;104192;1280;97187;-83
2023/06/18 01:43:06;;;;;;;22.20;19.90;;;;;;;17.52;82.86;100312.26;104243;1282;101382;-82
2023/06/18 01:46:03;;;;;;;22.30;19.50;;;;;;;17.53;83.04;100312.27;103985;1285;99139;-84
2023/06/18 01:48:56;;;;;;;25.40;21.40;;;;;;;17.54;83.07;100315.92;104096;1286;98540;-83
2023/06/18 01:51:42;;;;;;;22.40;20.10;;;;;;;17.55;83.05;100317.08;104272;1285;96456;-83
2023/06/18 01:54:28;;;;;;;22.80;19.70;;;;;;;17.55;82.96;100318.86;104061;1283;98345;-83
2023/06/18 01:57:14;;;;;;;22.10;19.40;;;;;;;17.54;83.05;100316.30;104185;1282;100171;-83
2023/06/18 02:00:00;;;;;;;20.40;18.30;;;;;;;17.53;82.81;100322.45;104044;1283;99119;-84
2023/06/18 02:02:49;;;;;;;22.80;20.40;;;;;;;17.52;82.76;100323.14;103855;1280;99165;-84
2023/06/18 02:05:35;;;;;;;22.30;18.10;;;;;;;17.48;82.69;100320.14;104097;1279;96654;-82
2023/06/18 02:08:20;;;;;;;22.50;19.70;;;;;;;17.43;82.72;100324.04;104233;1284;98315;-83
2023/06/18 02:11:06;;;;;;;22.00;19.50;;;;;;;17.40;82.81;100325.86;104083;1280;101318;-84
2023/06/18 02:13:52;;;;;;;22.30;20.00;;;;;;;17.41;82.77;100326.15;104298;1280;99155;-82
2023/06/18 02:16:37;;;;;;;21.40;19.30;;;;;;;17.40;82.97;100328.68;104236;1286;97956;-83
2023/06/18 02:19:23;;;;;;;21.90;19.60;;;;;;;17.38;83.07;100331.08;104376;1279;96666;-82
2023/06/18 02:22:09;;;;;;;21.00;18.80;;;;;;;17.36;82.97;100337.58;104187;1279;97431;-83
2023/06/18 02:24:55;;;;;;;20.60;18.40;;;;;;;17.33;82.87;100333.55;104062;1280;101396;-83
2023/06/18 02:27:52;;;;;;;21.60;18.00;;;;;;;17.31;82.96;100339.31;104291;1280;99136;-84
2023/06/18 02:30:37;;;;;;;20.70;18.30;;;;;;;17.28;82.87;100343.14;104297;1284;98530;-82
2023/06/18 02:33:23;;;;;;;21.60;19.40;;;;;;;17.26;83.10;100350.48;104016;1285;96651;-83
2023/06/18 02:36:10;;;;;;;20.60;18.40;;;;;;;17.25;82.99;100355.41;104175;1280;97172;-83
2023/06/18 02:38:58;;;;;;;22.50;19.60;;;;;;;17.22;82.88;100360.38;104109;1280;100039;-84
2023/06/18 02:41:44;;;;;;;21.20;19.10;;;;;;;17.20;83.15;100362.66;104216;1280;99141;-82
2023/06/18 02:44:31;;;;;;;22.00;18.10;;;;;;;17.18;83.34;100364.90;103988;1285;97815;-83
2023/06/18 02:47:16;;;;;;;20.00;18.10;;;;;;;17.16;83.43;100365.92;104425;1279;96558;-83
2023/06/18 02:50:02;;;;;;;21.90;19.30;;;;;;;17.14;83.39;100364.73;104335;1278;97119;-83
2023/06/18 02:52:49;;;;;;;21.40;19.00;;;;;;;17.10;83.74;100367.95;104257;1280;100013;-83
2023/06/18 02:55:34;;;;;;;20.00;17.90;;;;;;;17.06;84.05;100367.69;104343;1280;99133;-83
2023/06/18 02:58:27;;;;;;;20.80;18.70;;;;;;;17.05;84.45;100368.75;104258;1286;97891;-83
2023/06/18 03:01:17;;;;;;;21.60;18.70;;;;;;;17.05;84.57;100368.54;104137;1285;96663;-84
2023/06/18 03:04:03;;;;;;;20.40;18.20;;;;;;;17.05;84.61;100368.96;104004;1283;97160;-84
2023/06/18 03:06:49;;;;;;;20.60;18.60;;;;;;;17.06;84.73;100373.53;104012;1280;100035;-83
2023/06/18 03:09:35;;;;;;;20.20;18.10;;;;;;;17.08;85.00;100373.04;104236;1282;100138;-84
2023/06/18 03:12:21;;;;;;;21.20;19.00;;;;;;;17.10;85.06;100373.64;103952;1296;97777;-84
2023/06/18 03:15:08;;;;;;;20.50;18.50;;;;;;;17.13;85.14;100372.98;104226;1286;96643;-83
2023/06/18 03:17:53;;;;;;;22.60;19.30;;;;;;;17.14;84.96;100369.30;103951;1280;96647;-83
2023/06/18 03:20:39;;;;;;;21.10;18.90;;;;;;;17.14;85.16;100369.02;103892;1281;100027;-84
2023/06/18 03:23:25;;;;;;;21.20;19.00;;;;;;;17.13;85.25;100370.98;104265;1285;99209;-84
2023/06/18 03:26:12;;;;;;;20.90;18.80;;;;;;;17.11;85.29;100371.73;104012;1285;99059;-84
2023/06/18 03:28:58;;;;;;;20.20;18.10;;;;;;;17.10;85.21;100372.71;104193;1282;96678;-83
2023/06/18 03:31:46;;;;;;;20.00;17.90;;;;;;;17.10;85.46;100369.83;104088;1279;96724;-85
2023/06/18 03:34:32;;;;;;;20.00;18.00;;;;;;;17.11;85.32;100367.10;103986;1282;101326;-85
2023/06/18 03:37:17;;;;;;;19.50;17.50;;;;;;;17.13;85.44;100365.86;104135;1280;99863;-82
2023/06/18 03:40:06;;;;;;;19.80;17.70;;;;;;;17.15;85.55;100365.41;104182;1280;97780;-82
2023/06/18 03:42:52;;;;;;;21.40;18.90;;;;;;;17.17;85.73;100370.86;104211;1282;96749;-83
2023/06/18 03:45:41;;;;;;;20.40;17.80;;;;;;;17.19;85.63;100376.93;104270;1283;97169;-84
2023/06/18 03:48:27;;;;;;;21.10;18.80;;;;;;;17.21;85.81;100378.88;104016;1279;100041;-84
2023/06/18 03:51:12;;;;;;;19.80;17.40;;;;;;;17.24;85.88;100377.37;103926;1285;100887;-84
2023/06/18 03:53:58;;;;;;;20.20;18.20;;;;;;;17.26;85.93;100379.33;103975;1280;97776;-82
2023/06/18 03:56:43;;;;;;;19.70;17.50;;;;;;;17.27;85.99;100379.07;103892;1285;97836;-82
2023/06/18 03:59:31;;;;;;;21.00;18.70;;;;;;;17.28;86.31;100380.29;104092;1282;96689;-83
2023/06/18 04:02:16;;;;;;;21.50;19.30;;;;;;;17.31;86.31;100380.89;104331;1280;100688;-82
2023/06/18 04:05:04;;;;;;;28.90;22.70;;;;;;;17.34;86.57;100382.86;104090;1280;99131;-83
2023/06/18 04:07:50;;;;;;;26.70;20.80;;;;;;;17.35;86.37;100384.61;104101;1285;99057;-83
2023/06/18 04:10:35;;;;;;;22.90;20.30;;;;;;;17.37;86.76;100385.84;103907;1280;97537;-83
2023/06/18 04:13:22;;;;;;;23.30;20.80;;;;;;;17.37;86.72;100380.88;104144;1280;97175;-83
2023/06/18 04:16:09;;;;;;;23.60;21.10;;;;;;;17.37;86.82;100384.63;104252;1280;100033;-82
2023/06/18 04:18:54;;;;;;;24.10;21.70;;;;;;;17.40;86.79;100387.06;103929;1280;101044;-84
2023/06/18 04:21:40;;;;;;;23.60;21.10;;;;;;;17.43;87.03;100390.02;104262;1283;98417;-83
2023/06/18 04:24:26;;;;;;;24.00;21.60;;;;;;;17.45;87.21;100381.23;104286;1282;96586;-83
2023/06/18 04:27:12;;;;;;;25.40;22.80;;;;;;;17.48;87.42;100380.96;104232;1282;97801;-83
2023/06/18 04:30:02;;;;;;;26.10;23.00;;;;;;;17.50;87.44;100380.66;104250;1280;101916;-83
2023/06/18 04:32:52;;;;;;;22.80;20.50;;;;;;;17.54;87.67;100386.98;104284;1279;99864;-84
2023/06/18 04:35:39;;;;;;;24.30;21.60;;;;;;;17.57;87.95;100388.61;104271;1282;99151;-82
2023/06/18 04:38:27;;;;;;;24.40;21.00;;;;;;;17.58;87.81;100391.30;104144;1280;96666;-82
2023/06/18 04:41:13;;;;;;;23.50;21.10;;;;;;;17.59;87.73;100396.09;104065;1279;97194;-85
2023/06/18 04:43:59;;;;;;;22.40;20.20;;;;;;;17.59;87.86;100394.36;104196;1280;100020;-82
2023/06/18 04:46:44;;;;;;;23.50;21.00;;;;;;;17.56;88.15;100395.21;103919;1282;99734;-84
2023/06/18 04:49:32;;;;;;;23.90;20.50;;;;;;;17.51;88.44;100400.38;104148;1283;97733;-84
2023/06/18 04:52:18;;;;;;;25.40;22.30;;;;;;;17.48;88.37;100402.52;104041;1285;96537;-83
2023/06/18 04:55:05;;;;;;;25.00;22.30;;;;;;;17.47;88.55;100404.11;104004;1285;97108;-84
2023/06/18 04:57:51;;;;;;;26.90;22.40;;;;;;;17.46;88.97;100404.01;104216;1283;101295;-83
2023/06/18 05:00:37;;;;;;;25.10;22.60;;;;;;;17.49;89.17;100404.00;103960;1285;100146;-84
2023/06/18 05:03:23;;;;;;;24.90;22.40;;;;;;;17.53;89.14;100407.00;103920;1279;99559;-83
2023/06/18 05:06:09;;;;;;;25.80;22.90;;;;;;;17.57;89.24;100411.15;104126;1280;96759;-85
2023/06/18 05:08:55;;;;;;;27.80;24.20;;;;;;;17.62;89.45;100414.08;104087;1285;96688;-84
2023/06/18 05:11:42;;;;;;;26.80;21.00;;;;;;;17.66;89.78;100416.40;104334;1280;101329;-85
2023/06/18 05:14:28;;;;;;;26.20;23.50;;;;;;;17.72;89.91;100417.12;103978;1279;100139;-83
2023/06/18 05:17:14;;;;;;;26.50;23.70;;;;;;;17.76;89.90;100422.67;104308;1279;98868;-84
2023/06/18 05:20:01;;;;;;;27.10;23.20;;;;;;;17.81;90.05;100422.95;104256;1280;97078;-84
2023/06/18 05:22:47;;;;;;;26.40;23.80;;;;;;;17.86;89.99;100422.73;104268;1279;97195;-84
2023/06/18 05:25:36;;;;;;;24.50;22.10;;;;;;;17.91;90.07;100422.84;104212;1279;100062;-83
2023/06/18 05:28:21;;;;;;;25.90;22.50;;;;;;;17.95;89.96;100420.02;104189;1280;99117;-83
2023/06/18 05:31:07;;;;;;;26.40;23.50;;;;;;;17.97;89.97;100419.14;104180;1279;98986;-82
2023/06/18 05:33:53;;;;;;;26.20;22.60;;;;;;;18.00;90.05;100424.87;104168;1280;96705;-85
2023/06/18 05:36:39;;;;;;;27.00;23.50;;;;;;;18.02;89.81;100424.70;104274;1285;97307;-84
2023/06/18 05:39:25;;;;;;;26.00;23.30;;;;;;;18.05;90.00;100427.15;104263;1280;100962;-83
2023/06/18 05:42:11;;;;;;;24.70;22.20;;;;;;;18.07;90.19;100432.52;104425;1279;99109;-84
2023/06/18 05:44:57;;;;;;;26.20;23.50;;;;;;;18.11;90.57;100435.79;104193;1283;99081;-83
2023/06/18 05:47:43;;;;;;;26.30;23.20;;;;;;;18.15;90.43;100441.19;104034;1279;96628;-84
2023/06/18 05:50:31;;;;;;;25.10;22.60;;;;;;;18.19;90.49;100439.86;104272;1279;98253;-83
2023/06/18 05:53:17;;;;;;;29.20;24.50;;;;;;;18.22;90.34;100443.21;104102;1280;100021;-83
2023/06/18 05:56:03;;;;;;;27.10;23.00;;;;;;;18.23;90.04;100443.73;104312;1283;99121;-84
2023/06/18 05:58:48;;;;;;;28.10;23.90;;;;;;;18.27;90.37;100442.25;104222;1280;97895;-83
2023/06/18 06:01:35;;;;;;;27.70;24.60;;;;;;;18.29;90.21;100444.63;104084;1279;96583;-83
2023/06/18 06:04:21;;;;;;;27.00;23.20;;;;;;;18.32;90.25;100448.10;104040;1279;96714;-84
2023/06/18 06:07:09;;;;;;;27.70;24.80;;;;;;;18.39;90.50;100449.70;104059;1279;100162;-84
2023/06/18 06:09:55;;;;;;;25.90;23.20;;;;;;;18.48;90.80;100448.55;104409;1286;99136;-83
2023/06/18 06:12:41;;;;;;;25.60;22.90;;;;;;;18.55;90.35;100447.02;104060;1278;97779;-84
2023/06/18 06:15:27;;;;;;;26.20;22.40;;;;;;;18.63;90.57;100450.42;104396;1280;96577;-83
2023/06/18 06:18:13;;;;;;;26.70;23.60;;;;;;;18.72;90.49;100450.80;104253;1279;96708;-84
2023/06/18 06:20:59;;;;;;;26.00;23.10;;;;;;;18.80;89.95;100456.27;104214;1279;101294;-85
2023/06/18 06:23:45;;;;;;;26.50;23.80;;;;;;;18.85;89.66;100456.74;104076;1283;99171;-83
2023/06/18 06:26:31;;;;;;;27.70;22.60;;;;;;;18.91;89.70;100455.50;104169;1280;97843;-83
2023/06/18 06:29:17;;;;;;;25.50;21.60;;;;;;;18.98;89.74;100462.14;104104;1279;96671;-82
2023/06/18 06:32:03;;;;;;;24.00;21.60;;;;;;;19.07;89.83;100467.73;104463;1284;97081;-84
2023/06/18 06:34:49;;;;;;;24.90;21.40;;;;;;;19.16;89.38;100470.48;104050;1280;101355;-84
2023/06/18 06:37:35;;;;;;;24.10;21.70;;;;;;;19.21;89.01;100467.23;104364;1279;99958;-82
2023/06/18 06:40:24;;;;;;;23.70;20.50;;;;;;;19.31;89.29;100469.61;104599;1279;97591;-81
2023/06/18 06:43:11;;;;;;;22.80;20.70;;;;;;;19.42;89.19;100467.58;104734;1281;96644;-86
2023/06/18 06:46:16;;;;;;;22.80;20.40;;;;;;;19.51;88.66;100466.26;104438;1280;96599;-88
2023/06/18 06:49:21;;;;;;;21.40;19.30;;;;;;;19.59;88.13;100468.35;104690;1282;101324;-89
2023/06/18 06:52:34;;;;;;;24.10;21.80;;;;;;;19.68;87.92;100470.15;104609;1279;100506;-85
2023/06/18 06:55:20;;;;;;;22.60;19.60;;;;;;;19.80;88.16;100467.84;104389;1277;98785;-89
2023/06/18 06:58:07;;;;;;;22.80;20.50;;;;;;;19.90;87.32;100468.74;104820;1287;96644;-89
2023/06/18 07:00:52;;;;;;;25.50;20.70;;;;;;;19.97;87.29;100465.45;104635;1283;97096;-89
2023/06/18 07:03:38;;;;;;;21.70;19.60;;;;;;;20.04;86.98;100457.63;104412;1287;99988;-87
2023/06/18 07:06:24;;;;;;;21.30;19.00;;;;;;;20.10;86.28;100466.24;104546;1279;100383;-85
2023/06/18 07:09:10;;;;;;;20.70;18.70;;;;;;;20.17;86.54;100471.95;104265;1280;97789;-84
2023/06/18 07:11:56;;;;;;;21.50;19.50;;;;;;;20.25;86.74;100475.83;104283;1284;97039;-78
2023/06/18 07:14:41;;;;;;;20.10;18.10;;;;;;;20.35;86.79;100471.54;103901;1280;97042;-79
2023/06/18 07:17:27;;;;;;;21.70;18.90;;;;;;;20.42;86.21;100470.27;103816;1283;101251;-78
2023/06/18 07:20:12;;;;;;;20.50;18.60;;;;;;;20.50;85.91;100473.02;103955;1280;100681;-81
2023/06/18 07:22:58;;;;;;;20.90;18.90;;;;;;;20.58;85.88;100474.74;104720;1283;97763;-82
2023/06/18 07:25:44;;;;;;;20.80;18.80;;;;;;;20.65;85.83;100478.33;104196;1285;96570;-83
2023/06/18 07:28:29;;;;;;;20.10;18.10;;;;;;;20.74;85.54;100480.98;104018;1280;96665;-82
2023/06/18 07:31:14;;;;;;;19.10;17.30;;;;;;;20.81;85.41;100480.71;104257;1281;100039;-83
2023/06/18 07:34:00;;;;;;;18.20;16.40;;;;;;;20.87;85.05;100477.13;104099;1283;99253;-85
2023/06/18 07:36:45;;;;;;;17.10;15.50;;;;;;;20.94;84.68;100474.26;105042;1279;97801;-80
2023/06/18 07:39:30;;;;;;;15.00;13.20;;;;;;;20.99;83.27;100472.73;105051;1279;96564;-80
2023/06/18 07:42:16;;;;;;;16.10;14.50;;;;;;;21.03;82.75;100477.64;105229;1279;96593;-80
2023/06/18 07:45:01;;;;;;;15.70;14.10;;;;;;;21.09;82.65;100480.00;105034;1282;101077;-80
2023/06/18 07:47:47;;;;;;;16.50;15.00;;;;;;;21.17;82.70;100482.52;104661;1280;99096;-82
2023/06/18 07:50:33;;;;;;;15.10;13.70;;;;;;;21.23;82.54;100481.98;104628;1283;99317;-82
2023/06/18 07:53:19;;;;;;;15.70;14.10;;;;;;;21.29;83.00;100483.08;104495;1279;96683;-82
2023/06/18 07:56:05;;;;;;;15.60;14.00;;;;;;;21.36;82.25;100487.48;104502;1280;96566;-83
2023/06/18 07:58:51;;;;;;;16.40;13.90;;;;;;;21.41;81.71;100487.41;104545;1280;100039;-82
2023/06/18 08:01:36;;;;;;;15.70;13.70;;;;;;;21.49;81.26;100487.33;104435;1279;100386;-82
2023/06/18 08:04:21;;;;;;;15.50;14.00;;;;;;;21.56;80.95;100490.70;104348;1280;97765;-81
2023/06/18 08:07:08;;;;;;;15.40;13.70;;;;;;;21.62;80.57;100487.42;104455;1280;96565;-80
2023/06/18 08:09:53;;;;;;;14.40;13.20;;;;;;;21.73;80.88;100484.70;104236;1280;98352;-80
2023/06/18 08:12:39;;;;;;;15.30;13.70;;;;;;;21.84;80.97;100484.71;104174;1280;100042;-81
2023/06/18 08:15:24;;;;;;;13.20;11.90;;;;;;;21.97;80.79;100491.33;104760;1279;99187;-80
2023/06/18 08:18:10;;;;;;;14.20;12.80;;;;;;;22.08;79.54;100495.86;104737;1280;97848;-80
2023/06/18 08:20:55;;;;;;;14.20;12.90;;;;;;;22.15;78.99;100496.67;104619;1279;97167;-81
2023/06/18 08:23:40;;;;;;;15.60;12.30;;;;;;;22.20;78.93;100493.10;104689;1282;96654;-80
2023/06/18 08:26:26;;;;;;;12.40;11.20;;;;;;;22.30;79.24;100488.77;104629;1278;100093;-79
2023/06/18 08:29:12;;;;;;;10.70;9.60;;;;;;;22.40;78.51;100484.22;104387;1282;99147;-79
2023/06/18 08:32:00;;;;;;;12.70;11.10;;;;;;;22.49;77.27;100485.58;103980;1280;97967;-80
2023/06/18 08:34:46;;;;;;;12.70;11.50;;;;;;;22.54;76.71;100484.84;104680;1282;96622;-81
2023/06/18 08:37:31;;;;;;;14.70;11.20;;;;;;;22.62;77.24;100483.48;104545;1280;96571;-79
2023/06/18 08:40:24;;;;;;;11.60;10.50;;;;;;;22.73;76.47;100486.13;104129;1282;100694;-81
2023/06/18 08:43:12;;;;;;;13.20;9.30;;;;;;;22.83;76.02;100484.29;104619;1279;99133;-81
2023/06/18 08:46:05;;;;;;;10.40;9.40;;;;;;;22.92;75.78;100482.73;104362;1280;99041;-80
2023/06/18 08:49:00;;;;;;;9.10;8.20;;;;;;;23.03;74.42;100480.35;104458;1282;97555;-80
2023/06/18 08:51:48;;;;;;;8.10;6.90;;;;;;;23.13;73.40;100481.11;104624;1283;96476;-81
2023/06/18 08:54:36;;;;;;;7.60;6.70;;;;;;;23.21;72.79;100478.83;104623;1279;100692;-81
2023/06/18 08:57:31;;;;;;;9.00;8.20;;;;;;;23.26;71.73;100479.21;104526;1280;99583;-81
2023/06/18 09:00:18;;;;;;;9.50;8.50;;;;;;;23.29;72.26;100472.50;104669;1280;99076;-80
2023/06/18 09:03:03;;;;;;;9.20;8.30;;;;;;;23.35;72.06;100472.78;104634;1279;96736;-80
2023/06/18 09:05:49;;;;;;;9.70;8.80;;;;;;;23.41;71.86;100471.76;104566;1280;98349;-79
2023/06/18 09:08:36;;;;;;;10.50;9.00;;;;;;;23.46;71.39;100470.59;104639;1280;100759;-80
2023/06/18 09:11:22;;;;;;;9.60;8.70;;;;;;;23.52;71.76;100466.39;104660;1280;99149;-79
2023/06/18 09:14:07;;;;;;;10.00;8.80;;;;;;;23.58;70.51;100465.67;104397;1280;97736;-80
2023/06/18 09:16:54;;;;;;;9.20;8.40;;;;;;;23.60;69.78;100468.02;104701;1279;97142;-81
2023/06/18 09:19:40;;;;;;;9.00;8.20;;;;;;;23.62;69.47;100468.25;104733;1280;97181;-80
2023/06/18 09:22:25;;;;;;;12.10;8.10;;;;;;;23.66;69.32;100470.20;104604;1280;101856;-81
2023/06/18 09:25:21;;;;;;;9.20;6.70;;;;;;;23.68;69.01;100465.07;104437;1280;100248;-80
2023/06/18 09:28:07;;;;;;;8.20;7.50;;;;;;;23.74;68.47;100463.41;104509;1279;98992;-80
2023/06/18 09:30:57;;;;;;;7.40;6.60;;;;;;;23.81;67.89;100462.57;104747;1280;96733;-80
2023/06/18 09:33:42;;;;;;;11.80;6.40;;;;;;;23.87;67.82;100463.98;104663;1281;96622;-79
2023/06/18 09:36:28;;;;;;;6.20;5.60;;;;;;;23.93;66.38;100462.21;104287;1282;100039;-80
2023/06/18 09:39:20;;;;;;;7.80;7.10;;;;;;;23.97;65.09;100460.52;104291;1282;100494;-80
2023/06/18 09:42:09;;;;;;;8.00;6.10;;;;;;;23.98;64.89;100464.84;104197;1282;99326;-80
2023/06/18 09:44:55;;;;;;;7.40;6.70;;;;;;;24.02;65.45;100465.59;104249;1280;97305;-80
2023/06/18 09:47:46;;;;;;;7.90;7.10;;;;;;;24.09;65.23;100462.52;105089;1280;95937;-80
2023/06/18 09:50:32;;;;;;;7.50;6.90;;;;;;;24.16;65.40;100456.48;104572;1280;100070;-80
2023/06/18 09:53:19;;;;;;;7.20;6.50;;;;;;;24.22;65.10;100448.73;104655;1279;99222;-81
2023/06/18 09:56:16;;;;;;;6.60;6.00;;;;;;;24.22;63.58;100449.45;104621;1282;100122;-80
2023/06/18 09:59:03;;;;;;;7.30;6.50;;;;;;;24.22;62.97;100449.62;104646;1285;97270;-79
2023/06/18 10:01:48;;;;;;;6.70;6.00;;;;;;;24.24;62.05;100448.19;105247;1280;96792;-80
2023/06/18 10:04:35;;;;;;;7.30;6.50;;;;;;;24.24;61.22;100450.48;104573;1280;100139;-80
2023/06/18 10:07:20;;;;;;;8.00;7.30;;;;;;;24.23;61.71;100453.34;104750;1279;99139;-81
2023/06/18 10:10:13;;;;;;;8.30;7.50;;;;;;;24.25;63.14;100453.83;104687;1282;99007;-79
2023/06/18 10:13:03;;;;;;;7.30;6.60;;;;;;;24.28;63.32;100455.66;104740;1282;96664;-80
2023/06/18 10:15:48;;;;;;;7.20;6.10;;;;;;;24.29;62.93;100448.65;104804;1280;96602;-80
2023/06/18 10:18:34;;;;;;;7.40;6.60;;;;;;;24.28;61.74;100443.95;104754;1280;101352;-80
2023/06/18 10:21:22;;;;;;;6.90;6.30;;;;;;;24.23;61.06;100448.41;105137;1280;100381;-80
2023/06/18 10:24:12;;;;;;;7.20;6.40;;;;;;;24.20;61.34;100451.98;104675;1279;97761;-81
2023/06/18 10:26:58;;;;;;;7.20;6.50;;;;;;;24.19;61.65;100453.95;104510;1284;97122;-81
2023/06/18 10:29:45;;;;;;;7.60;6.90;;;;;;;24.20;61.72;100452.09;104610;1279;98217;-82
2023/06/18 10:32:33;;;;;;;7.70;7.00;;;;;;;24.20;61.46;100451.05;103997;1279;100059;-79
2023/06/18 10:35:19;;;;;;;8.30;7.30;;;;;;;24.18;60.96;100448.65;104701;1279;100317;-79
2023/06/18 10:38:06;;;;;;;8.90;6.70;;;;;;;24.16;60.71;100450.90;104024;1279;99104;-80
2023/06/18 10:41:12;;;;;;;7.20;6.50;;;;;;;24.15;61.16;100452.77;104191;1279;96583;-79
2023/06/18 10:51:30;;;;;;;8.00;7.00;;;;;;;23.99;63.04;100460.45;105275;1283;99018;-90
2023/06/18 10:54:21;;;;;;;7.80;7.10;;;;;;;23.89;63.41;100461.19;104368;1287;107186;-91
2023/06/18 11:04:17;;;;;;;8.90;6.10;;;;;;;23.50;63.69;100460.21;105739;1283;101165;-91
2023/06/18 11:07:14;;;;;;;6.70;5.90;;;;;;;23.40;63.49;100457.92;104692;1283;100422;-82
2023/06/18 11:10:04;;;;;;;7.80;6.80;;;;;;;23.30;63.62;100458.28;104136;1287;99104;-81
2023/06/18 11:12:50;;;;;;;7.50;6.80;;;;;;;23.21;64.00;100461.94;104260;1282;98061;-81
2023/06/18 11:16:14;;;;;;;8.40;7.50;;;;;;;23.13;64.11;100459.00;104208;1282;96338;-88
2023/06/18 11:19:03;;;;;;;7.00;6.40;;;;;;;23.05;64.82;100457.89;103684;1291;101515;-79
2023/06/18 11:21:49;;;;;;;7.70;7.00;;;;;;;23.02;65.10;100459.30;104273;1286;101360;-80
2023/06/18 11:24:35;;;;;;;7.20;6.60;;;;;;;23.00;65.41;100458.42;104285;1285;98005;-80
2023/06/18 11:27:21;;;;;;;8.80;7.10;;;;;;;23.05;66.16;100452.25;104239;1283;98017;-80
2023/06/18 11:30:11;;;;;;;7.60;6.90;;;;;;;23.12;66.31;100448.05;103668;1285;98470;-78
2023/06/18 11:32:57;;;;;;;8.60;6.70;;;;;;;23.14;66.19;100446.14;103482;1285;102627;-79
2023/06/18 11:35:42;;;;;;;7.70;7.00;;;;;;;23.18;66.40;100441.60;104201;1286;99135;-83
2023/06/18 11:38:29;;;;;;;8.50;7.70;;;;;;;23.23;66.36;100440.90;104232;1298;99030;-80
2023/06/18 11:41:21;;;;;;;12.80;7.80;;;;;;;23.28;66.49;100439.48;104067;1282;98030;-86
2023/06/18 11:44:30;;;;;;;8.60;7.80;;;;;;;23.43;67.58;100436.81;104656;1283;98555;-86
2023/06/18 11:47:17;;;;;;;8.80;7.80;;;;;;;23.65;67.08;100437.27;104091;1282;102785;-79
2023/06/18 11:50:02;;;;;;;11.20;9.90;;;;;;;23.91;67.55;100445.09;104206;1285;99811;-82
2023/06/18 11:52:48;;;;;;;12.60;11.10;;;;;;;24.04;67.05;100446.17;104234;1280;98658;-82
2023/06/18 11:55:36;;;;;;;12.30;11.10;;;;;;;24.06;66.74;100446.95;104345;1284;98504;-81
2023/06/18 11:58:22;;;;;;;11.50;10.40;;;;;;;24.01;66.39;100448.41;104439;1282;98053;-81
2023/06/18 12:01:07;;;;;;;12.50;11.30;;;;;;;23.97;66.70;100447.77;104138;1285;101369;-84
2023/06/18 12:04:00;;;;;;;12.00;10.70;;;;;;;23.92;66.72;100444.82;104346;1284;99124;-82
2023/06/18 12:06:46;;;;;;;12.00;10.90;;;;;;;23.85;66.92;100447.63;104403;1283;97934;-83
2023/06/18 12:09:36;;;;;;;11.70;10.50;;;;;;;23.77;66.93;100445.50;103998;1283;112245;-82
2023/06/18 12:12:51;;;;;;;12.30;9.60;;;;;;;23.70;66.41;100445.41;104266;1283;98013;-80
2023/06/18 12:15:47;;;;;;;9.20;8.40;;;;;;;23.55;65.43;100443.36;104291;1286;101392;-91
2023/06/18 12:18:42;;;;;;;9.70;8.60;;;;;;;23.48;65.79;100441.58;104174;1284;99167;-86
2023/06/18 12:21:28;;;;;;;8.70;7.80;;;;;;;23.50;66.01;100439.92;104429;1283;97948;-90
2023/06/18 12:24:14;;;;;;;6.60;6.10;;;;;;;23.65;65.91;100434.55;104317;1286;96545;-87
2023/06/18 12:27:00;;;;;;;8.00;7.20;;;;;;;23.84;64.79;100434.05;104171;1283;98527;-83
2023/06/18 12:29:46;;;;;;;11.60;8.10;;;;;;;23.96;65.25;100432.27;104120;1288;103132;-82
2023/06/18 12:32:36;;;;;;;8.20;7.40;;;;;;;24.10;64.77;100436.69;104148;1283;99129;-84
2023/06/18 12:35:25;;;;;;;9.30;7.20;;;;;;;24.12;63.31;100442.59;104397;1284;99138;-89
2023/06/18 12:38:10;;;;;;;7.20;6.60;;;;;;;24.07;62.31;100449.13;104625;1283;97918;-89
2023/06/18 12:40:58;;;;;;;6.70;6.10;;;;;;;23.96;61.96;100454.33;104651;1280;97884;-88
2023/06/18 12:43:44;;;;;;;8.00;7.10;;;;;;;23.92;61.34;100467.52;104631;1283;101734;-91
2023/06/18 12:46:31;;;;;;;6.90;6.30;;;;;;;23.84;62.25;100485.55;104654;1283;99832;-80
2023/06/18 12:49:19;;;;;;;6.70;6.20;;;;;;;23.58;61.86;100492.27;104121;1285;99101;-80
2023/06/18 12:52:16;;;;;;;6.70;5.20;;;;;;;23.16;61.64;100485.66;103770;1280;98036;-80